Time;durP1;ratioP1;P1;durP2;ratioP2;P2;SDS_P1;SDS_P2;PMS_P1;PMS_P2;Temp;Humidity;BMP_temperature;BMP_pressure;BME280_temperature;BME280_humidity;BME280_pressure;Samples;Min_cycle;Max_cycle;Signal;HPM_P1;HPM_P2
2022/12/09 00:01:20;;;;;;;15.68;9.23;;;3.20;99.90;;;;;;5069372;28;20037;-67
2022/12/09 00:03:46;;;;;;;20.55;10.68;;;3.20;99.90;;;;;;5069349;28;20095;-67
2022/12/09 00:06:21;;;;;;;17.05;9.57;;;3.20;99.90;;;;;;5069959;28;20032;-67
2022/12/09 00:08:48;;;;;;;17.35;9.93;;;3.20;99.90;;;;;;5070970;28;20490;-68
2022/12/09 00:11:14;;;;;;;19.35;9.68;;;3.20;99.90;;;;;;5070188;28;20068;-68
2022/12/09 00:13:40;;;;;;;15.95;9.68;;;3.20;99.90;;;;;;5070869;28;20116;-67
2022/12/09 00:16:08;;;;;;;19.85;9.48;;;3.20;99.90;;;;;;5071108;28;20036;-68
2022/12/09 00:18:34;;;;;;;18.48;10.05;;;3.30;99.90;;;;;;5069393;28;20490;-68
2022/12/09 00:21:26;;;;;;;16.92;9.65;;;3.30;99.90;;;;;;5070378;28;20572;-67
2022/12/09 00:23:53;;;;;;;17.40;10.35;;;3.30;99.90;;;;;;5070396;28;20037;-67
2022/12/09 00:26:20;;;;;;;16.10;10.13;;;3.30;99.90;;;;;;5069618;28;20071;-68
2022/12/09 00:28:48;;;;;;;16.05;9.68;;;3.30;99.90;;;;;;5069474;28;20041;-68
2022/12/09 00:31:17;;;;;;;21.77;10.35;;;3.30;99.90;;;;;;5058976;28;20058;-68
2022/12/09 00:33:43;;;;;;;18.15;10.65;;;3.20;99.90;;;;;;5052417;28;20612;-68
2022/12/09 00:36:14;;;;;;;19.05;10.27;;;3.30;99.90;;;;;;5071297;28;20115;-68
2022/12/09 00:38:40;;;;;;;;;;;3.30;99.90;;;;;;5071762;28;20125;-68
2022/12/09 00:41:06;;;;;;;19.50;10.07;;;3.20;99.90;;;;;;5065255;28;19990;-67
2022/12/09 00:43:32;;;;;;;19.77;10.15;;;3.20;99.90;;;;;;5058325;28;20414;-67
2022/12/09 00:45:58;;;;;;;20.30;10.85;;;3.20;99.90;;;;;;5078678;22;20394;-71
2022/12/09 00:48:24;;;;;;;23.20;10.68;;;3.20;99.90;;;;;;5069164;28;20039;-70
2022/12/09 00:50:49;;;;;;;18.50;10.93;;;3.20;99.90;;;;;;5070859;28;20090;-71
2022/12/09 00:53:16;;;;;;;19.35;10.57;;;3.20;99.90;;;;;;5069709;28;20460;-71
2022/12/09 00:55:42;;;;;;;18.90;10.43;;;3.20;99.90;;;;;;5069123;28;20037;-70
2022/12/09 00:58:08;;;;;;;20.25;10.52;;;3.30;99.90;;;;;;5068021;28;20052;-71
2022/12/09 01:00:33;;;;;;;22.92;11.68;;;3.20;99.90;;;;;;5070150;28;20044;-71
2022/12/09 01:02:59;;;;;;;20.38;10.50;;;3.20;99.90;;;;;;5070670;28;20047;-72
2022/12/09 01:05:24;;;;;;;19.85;10.90;;;3.20;99.90;;;;;;5069694;28;20456;-72
2022/12/09 01:07:50;;;;;;;18.92;10.45;;;3.30;99.90;;;;;;5071128;28;20040;-72
2022/12/09 01:10:16;;;;;;;17.60;10.52;;;3.20;99.90;;;;;;5069907;28;20060;-72
2022/12/09 01:12:42;;;;;;;21.42;11.15;;;3.20;99.90;;;;;;5069463;28;20033;-72
2022/12/09 01:15:08;;;;;;;20.23;10.80;;;3.20;99.90;;;;;;5061025;28;20037;-72
2022/12/09 01:17:36;;;;;;;23.23;10.90;;;3.20;99.90;;;;;;5065635;28;20041;-72
2022/12/09 01:20:03;;;;;;;20.75;10.30;;;3.20;99.90;;;;;;5069411;28;20032;-72
2022/12/09 01:22:29;;;;;;;21.15;10.93;;;3.10;99.90;;;;;;5068052;28;20079;-72
2022/12/09 01:24:55;;;;;;;17.42;10.15;;;3.10;99.90;;;;;;5067519;28;20295;-72
2022/12/09 01:27:20;;;;;;;19.15;10.45;;;3.00;99.90;;;;;;5068787;28;20512;-72
2022/12/09 01:29:46;;;;;;;18.92;10.43;;;3.00;99.90;;;;;;5070137;28;20025;-72
2022/12/09 01:32:11;;;;;;;17.85;10.00;;;2.90;99.90;;;;;;5068026;28;20501;-72
2022/12/09 01:34:37;;;;;;;23.33;11.18;;;2.90;99.90;;;;;;5068833;28;20060;-72
2022/12/09 01:37:02;;;;;;;19.98;10.73;;;2.90;99.90;;;;;;5066961;28;20535;-72
2022/12/09 01:39:28;;;;;;;18.85;9.73;;;2.90;99.90;;;;;;5087883;28;20039;-72
2022/12/09 01:41:54;;;;;;;17.40;9.90;;;2.80;99.90;;;;;;5073177;28;20098;-72
2022/12/09 01:44:21;;;;;;;19.95;11.00;;;2.70;99.90;;;;;;5072835;28;20505;-72
2022/12/09 01:46:47;;;;;;;18.17;10.25;;;2.70;99.90;;;;;;5073395;28;20040;-72
2022/12/09 01:49:22;;;;;;;16.80;9.98;;;2.70;99.90;;;;;;5072137;28;20041;-72
2022/12/09 01:51:56;;;;;;;23.52;11.15;;;2.70;99.90;;;;;;5072600;28;20055;-72
2022/12/09 01:54:22;;;;;;;18.13;10.48;;;2.60;99.90;;;;;;5072230;28;20039;-72
2022/12/09 01:56:48;;;;;;;16.08;9.65;;;2.60;99.90;;;;;;5079568;28;20036;-72
2022/12/09 01:59:15;;;;;;;17.83;9.82;;;2.50;99.90;;;;;;5073177;28;20066;-72
2022/12/09 02:01:43;;;;;;;20.80;10.00;;;2.50;99.90;;;;;;5072623;28;20036;-72
2022/12/09 02:04:08;;;;;;;18.17;9.02;;;2.50;99.90;;;;;;5072369;28;20044;-72
2022/12/09 02:06:36;;;;;;;23.45;9.65;;;2.50;99.90;;;;;;5073602;28;20433;-72
2022/12/09 02:09:02;;;;;;;19.10;10.25;;;2.50;99.90;;;;;;5072225;28;20041;-72
2022/12/09 02:11:42;;;;;;;20.20;11.35;;;2.50;99.90;;;;;;5066493;28;20033;-72
2022/12/09 02:14:22;;;;;;;23.23;11.35;;;2.50;99.90;;;;;;5065728;28;20045;-72
2022/12/09 02:17:09;;;;;;;18.38;9.73;;;2.40;99.90;;;;;;5068500;28;20074;-72
2022/12/09 02:20:00;;;;;;;18.50;9.50;;;2.40;99.90;;;;;;5072516;28;20110;-72
2022/12/09 02:22:33;;;;;;;21.85;10.43;;;2.40;99.90;;;;;;5068374;28;20123;-71
2022/12/09 02:25:15;;;;;;;18.38;9.48;;;2.40;99.90;;;;;;5068755;28;20032;-72
2022/12/09 02:28:10;;;;;;;21.63;10.50;;;2.50;99.90;;;;;;5068856;28;20162;-72
2022/12/09 02:31:09;;;;;;;19.80;10.65;;;2.50;99.90;;;;;;5072586;28;20031;-72
2022/12/09 02:34:12;;;;;;;20.73;10.60;;;2.50;99.90;;;;;;5060623;28;20056;-72
2022/12/09 02:36:57;;;;;;;24.15;12.23;;;2.50;99.90;;;;;;5071486;28;20093;-72
2022/12/09 02:39:39;;;;;;;18.63;10.13;;;2.50;99.90;;;;;;5071766;28;20072;-72
2022/12/09 02:42:06;;;;;;;;;;;2.50;99.90;;;;;;5055863;28;20123;-72
2022/12/09 02:44:34;;;;;;;17.45;9.63;;;2.50;99.90;;;;;;5072223;28;19998;-72
2022/12/09 02:47:00;;;;;;;18.83;10.40;;;2.50;99.90;;;;;;5072125;28;20067;-72
2022/12/09 02:49:29;;;;;;;23.90;11.25;;;2.50;99.90;;;;;;5072478;28;20045;-72
2022/12/09 02:51:56;;;;;;;22.70;11.73;;;2.50;99.90;;;;;;5071177;28;20123;-72
2022/12/09 02:54:23;;;;;;;19.48;10.95;;;2.50;99.90;;;;;;5070653;28;20501;-72
2022/12/09 02:56:57;;;;;;;21.55;11.93;;;2.50;99.90;;;;;;5072530;28;20028;-72
2022/12/09 02:59:23;;;;;;;23.88;11.77;;;2.50;99.90;;;;;;5071702;28;20486;-72
2022/12/09 03:02:05;;;;;;;23.40;11.82;;;2.50;99.90;;;;;;5075033;28;20039;-72
2022/12/09 03:04:31;;;;;;;19.83;11.50;;;2.50;99.90;;;;;;5070212;28;20039;-72
2022/12/09 03:07:14;;;;;;;17.48;11.23;;;2.50;99.90;;;;;;5067553;28;20040;-72
2022/12/09 03:09:45;;;;;;;22.13;11.43;;;2.50;99.90;;;;;;5071515;28;20037;-72
2022/12/09 03:12:17;;;;;;;21.42;10.80;;;2.50;99.90;;;;;;5071722;28;20039;-72
2022/12/09 03:14:49;;;;;;;21.27;11.27;;;2.50;99.90;;;;;;5071632;28;20072;-72
2022/12/09 03:17:17;;;;;;;20.88;11.38;;;2.60;99.90;;;;;;5072419;28;20036;-72
2022/12/09 03:19:53;;;;;;;24.13;12.23;;;2.50;99.90;;;;;;5070138;28;20040;-72
2022/12/09 03:22:23;;;;;;;27.05;12.18;;;2.60;99.90;;;;;;5066610;28;20444;-72
2022/12/09 03:24:54;;;;;;;24.25;12.10;;;2.50;99.90;;;;;;5070705;28;20059;-72
2022/12/09 03:27:37;;;;;;;23.85;12.68;;;2.50;99.90;;;;;;5071668;28;20036;-72
2022/12/09 03:30:04;;;;;;;21.75;11.63;;;2.50;99.90;;;;;;5071576;28;20044;-72
2022/12/09 03:32:31;;;;;;;22.73;11.60;;;2.50;99.90;;;;;;5070801;28;20506;-72
2022/12/09 03:35:06;;;;;;;22.65;12.25;;;2.50;99.90;;;;;;5071091;28;20120;-72
2022/12/09 03:37:35;;;;;;;23.90;12.13;;;2.50;99.90;;;;;;5071748;28;20045;-72
2022/12/09 03:40:03;;;;;;;22.60;11.75;;;2.40;99.90;;;;;;5069862;28;20048;-72
2022/12/09 03:42:41;;;;;;;23.70;12.02;;;2.40;99.90;;;;;;5070576;28;20066;-72
2022/12/09 03:45:12;;;;;;;22.95;11.80;;;2.40;99.90;;;;;;5064666;28;20036;-71
2022/12/09 03:47:38;;;;;;;20.15;11.73;;;2.40;99.90;;;;;;5071396;28;20055;-72
2022/12/09 03:50:05;;;;;;;23.88;12.00;;;2.40;99.90;;;;;;5069780;28;20037;-72
2022/12/09 03:52:44;;;;;;;23.65;12.18;;;2.30;99.90;;;;;;5071432;28;20095;-72
2022/12/09 03:55:23;;;;;;;24.02;12.57;;;2.30;99.90;;;;;;5065819;28;20055;-72
2022/12/09 03:57:54;;;;;;;22.50;11.73;;;2.30;99.90;;;;;;5067060;28;20493;-73
2022/12/09 04:00:20;;;;;;;19.67;11.20;;;2.30;99.90;;;;;;5070094;28;20123;-72
2022/12/09 04:02:45;;;;;;;22.75;12.48;;;2.30;99.90;;;;;;5070953;28;20040;-73
2022/12/09 04:05:11;;;;;;;20.08;11.32;;;2.30;99.90;;;;;;5068239;28;20040;-73
2022/12/09 04:07:37;;;;;;;20.42;10.80;;;2.30;99.90;;;;;;5071449;28;20115;-72
2022/12/09 04:10:04;;;;;;;18.42;10.38;;;2.30;99.90;;;;;;5070012;28;20159;-72
2022/12/09 04:12:30;;;;;;;17.67;10.20;;;2.30;99.90;;;;;;5070745;28;20037;-72
2022/12/09 04:14:55;;;;;;;18.40;10.80;;;2.30;99.90;;;;;;5070021;28;20047;-72
2022/12/09 04:17:21;;;;;;;22.45;11.82;;;2.30;99.90;;;;;;5071100;28;21558;-72
2022/12/09 04:19:46;;;;;;;24.55;11.68;;;2.20;99.90;;;;;;5071156;28;20382;-72
2022/12/09 04:22:12;;;;;;;25.20;12.07;;;2.20;99.90;;;;;;5067695;28;20032;-72
2022/12/09 04:24:38;;;;;;;21.55;12.13;;;2.20;99.90;;;;;;5071432;28;20397;-72
2022/12/09 04:27:04;;;;;;;19.77;10.70;;;2.20;99.90;;;;;;5070540;28;20047;-72
2022/12/09 04:29:29;;;;;;;18.38;10.95;;;2.20;99.90;;;;;;5071507;28;20067;-72
2022/12/09 04:31:55;;;;;;;23.42;11.68;;;2.20;99.90;;;;;;5069346;28;20135;-71
2022/12/09 04:34:20;;;;;;;21.25;11.30;;;2.20;99.90;;;;;;5070738;28;20078;-72
2022/12/09 04:36:47;;;;;;;18.52;10.40;;;2.20;99.90;;;;;;5070489;28;20524;-72
2022/12/09 04:39:13;;;;;;;18.58;11.18;;;2.20;99.90;;;;;;5070533;28;20041;-72
2022/12/09 04:41:39;;;;;;;20.05;11.05;;;2.20;99.90;;;;;;5069110;28;20112;-72
2022/12/09 04:44:05;;;;;;;21.20;11.20;;;2.20;99.90;;;;;;5070421;28;20090;-72
2022/12/09 04:46:30;;;;;;;18.52;10.65;;;2.20;99.90;;;;;;5070084;28;20033;-72
2022/12/09 04:48:56;;;;;;;18.92;9.30;;;2.30;99.90;;;;;;5069981;28;20076;-72
2022/12/09 04:51:21;;;;;;;20.83;10.10;;;2.30;99.90;;;;;;5069339;28;20097;-72
2022/12/09 04:53:47;;;;;;;19.42;10.27;;;2.20;99.90;;;;;;5071261;28;20033;-72
2022/12/09 04:56:15;;;;;;;20.42;10.82;;;2.30;99.90;;;;;;5070164;28;20029;-72
2022/12/09 04:58:43;;;;;;;19.13;10.77;;;2.30;99.90;;;;;;5070791;28;20072;-72
2022/12/09 05:01:11;;;;;;;20.02;11.20;;;2.30;99.90;;;;;;5067261;28;20052;-72
2022/12/09 05:03:37;;;;;;;19.40;10.43;;;2.30;99.90;;;;;;5067513;28;20041;-72
2022/12/09 05:06:04;;;;;;;22.33;12.38;;;2.30;99.90;;;;;;5061802;28;20398;-73
2022/12/09 05:08:30;;;;;;;20.90;11.65;;;2.30;99.90;;;;;;5070581;28;20504;-73
2022/12/09 05:10:55;;;;;;;23.02;11.82;;;2.20;99.90;;;;;;5069869;28;20116;-73
2022/12/09 05:13:21;;;;;;;17.75;10.20;;;2.20;99.90;;;;;;5064676;28;20498;-73
2022/12/09 05:15:47;;;;;;;23.52;11.70;;;2.20;99.90;;;;;;5067086;28;20047;-73
2022/12/09 05:18:12;;;;;;;21.10;11.38;;;2.20;99.90;;;;;;5069027;28;20044;-73
2022/12/09 05:20:39;;;;;;;26.08;11.20;;;2.20;99.90;;;;;;5068031;28;20033;-73
2022/12/09 05:23:05;;;;;;;21.60;10.82;;;2.20;99.90;;;;;;5065777;28;20494;-71
2022/12/09 05:25:30;;;;;;;20.05;11.15;;;2.10;99.90;;;;;;5068053;28;20032;-73
2022/12/09 05:27:56;;;;;;;21.88;10.98;;;2.10;99.90;;;;;;5069602;28;20147;-73
2022/12/09 05:30:22;;;;;;;21.95;11.60;;;2.10;99.90;;;;;;5068510;28;20082;-73
2022/12/09 05:32:47;;;;;;;23.33;12.20;;;2.10;99.90;;;;;;5073850;28;20042;-73
2022/12/09 05:35:13;;;;;;;23.25;11.70;;;2.10;99.90;;;;;;5074295;28;20032;-71
2022/12/09 05:37:39;;;;;;;21.45;11.45;;;2.10;99.90;;;;;;5081673;28;20041;-72
2022/12/09 05:40:05;;;;;;;20.63;11.70;;;2.10;99.90;;;;;;5074303;28;20047;-72
2022/12/09 05:42:30;;;;;;;25.35;12.77;;;2.10;99.90;;;;;;5065895;28;20068;-72
2022/12/09 05:44:56;;;;;;;24.88;13.18;;;2.10;99.90;;;;;;5069472;28;20814;-71
2022/12/09 05:47:21;;;;;;;22.10;12.27;;;2.10;99.90;;;;;;5067755;28;20055;-72
2022/12/09 05:49:47;;;;;;;20.48;10.63;;;2.10;99.90;;;;;;5067917;28;20404;-72
2022/12/09 05:52:13;;;;;;;22.85;11.90;;;2.10;99.90;;;;;;5062184;28;20120;-72
2022/12/09 05:54:39;;;;;;;21.25;10.98;;;2.10;99.90;;;;;;5064329;28;20066;-72
2022/12/09 05:57:05;;;;;;;23.80;12.25;;;2.10;99.90;;;;;;5067912;28;20893;-72
2022/12/09 05:59:31;;;;;;;21.38;12.60;;;2.10;99.90;;;;;;5061274;28;20123;-72
2022/12/09 06:01:57;;;;;;;22.23;11.95;;;2.10;99.90;;;;;;5048135;28;20106;-72
2022/12/09 06:04:22;;;;;;;26.55;12.10;;;2.00;99.90;;;;;;5048129;28;20048;-72
2022/12/09 06:06:48;;;;;;;21.92;11.90;;;2.10;99.90;;;;;;5048764;28;20036;-72
2022/12/09 06:09:13;;;;;;;23.35;11.73;;;2.10;99.90;;;;;;5048788;28;20043;-72
2022/12/09 06:11:39;;;;;;;23.10;11.80;;;2.00;99.90;;;;;;5059344;28;20066;-72
2022/12/09 06:14:10;;;;;;;24.90;12.65;;;2.00;99.90;;;;;;5066398;28;20036;-72
2022/12/09 06:16:36;;;;;;;27.50;13.30;;;2.00;99.90;;;;;;5064126;28;20036;-72
2022/12/09 06:19:02;;;;;;;24.85;12.15;;;2.00;99.90;;;;;;5063331;28;20039;-72
2022/12/09 06:21:27;;;;;;;23.95;12.82;;;2.00;99.90;;;;;;5062406;28;20037;-72
2022/12/09 06:23:53;;;;;;;23.83;12.85;;;2.00;99.90;;;;;;5063925;28;20043;-72
2022/12/09 06:26:22;;;;;;;24.58;12.90;;;2.00;99.90;;;;;;5069528;28;20393;-72
2022/12/09 06:28:48;;;;;;;23.23;11.98;;;1.90;99.90;;;;;;5080987;28;20045;-72
2022/12/09 06:31:14;;;;;;;22.13;11.82;;;1.90;99.90;;;;;;5073538;28;20557;-72
2022/12/09 06:33:39;;;;;;;24.27;12.43;;;1.90;99.90;;;;;;5072613;28;20033;-72
2022/12/09 06:36:05;;;;;;;21.35;11.75;;;1.80;99.90;;;;;;5073433;28;20032;-72
2022/12/09 06:38:32;;;;;;;26.27;13.95;;;1.80;99.90;;;;;;5073731;28;20097;-72
2022/12/09 06:40:57;;;;;;;27.67;13.90;;;1.80;99.90;;;;;;5071751;28;20041;-72
2022/12/09 06:43:23;;;;;;;24.13;12.50;;;1.70;99.90;;;;;;5071086;28;20085;-72
2022/12/09 06:45:48;;;;;;;25.98;14.10;;;1.60;99.90;;;;;;5094384;22;20042;-66
2022/12/09 06:48:14;;;;;;;28.15;14.40;;;1.60;99.90;;;;;;5057300;28;20556;-66
2022/12/09 06:50:40;;;;;;;25.95;13.60;;;1.60;99.90;;;;;;5066502;28;20033;-67
2022/12/09 06:53:06;;;;;;;27.48;14.63;;;1.50;99.90;;;;;;5064080;28;20028;-66
2022/12/09 06:55:31;;;;;;;29.15;14.38;;;1.50;99.90;;;;;;5060265;28;20632;-66
2022/12/09 06:57:58;;;;;;;29.73;14.88;;;1.50;99.90;;;;;;5068443;28;20651;-66
2022/12/09 07:00:24;;;;;;;29.10;14.43;;;1.40;99.90;;;;;;5058437;28;20451;-66
2022/12/09 07:02:50;;;;;;;29.88;14.30;;;1.30;99.90;;;;;;5064818;28;20033;-66
2022/12/09 07:05:16;;;;;;;27.63;13.48;;;1.30;99.90;;;;;;5051715;28;20089;-66
2022/12/09 07:07:42;;;;;;;22.33;11.73;;;1.20;99.90;;;;;;5067566;28;20041;-66
2022/12/09 07:10:09;;;;;;;23.80;12.05;;;1.20;99.90;;;;;;5065083;28;20409;-66
2022/12/09 07:12:35;;;;;;;24.40;12.35;;;1.10;99.90;;;;;;5068170;28;20036;-66
2022/12/09 07:15:00;;;;;;;26.75;13.18;;;1.10;99.90;;;;;;5072003;28;20024;-66
2022/12/09 07:17:26;;;;;;;29.38;13.88;;;1.10;99.90;;;;;;5067504;28;20470;-67
2022/12/09 07:19:51;;;;;;;32.22;14.40;;;1.10;99.90;;;;;;5067141;28;20029;-66
2022/12/09 07:22:17;;;;;;;28.75;13.95;;;1.10;99.90;;;;;;5063163;28;20036;-66
2022/12/09 07:24:43;;;;;;;25.60;13.10;;;1.10;99.90;;;;;;5064637;28;20393;-67
2022/12/09 07:27:13;;;;;;;28.92;13.75;;;1.10;99.90;;;;;;5054576;28;20102;-66
2022/12/09 07:29:39;;;;;;;27.55;14.23;;;1.10;99.90;;;;;;5070642;28;20127;-66
2022/12/09 07:32:06;;;;;;;29.70;13.80;;;1.10;99.90;;;;;;5071297;28;20123;-66
2022/12/09 07:34:32;;;;;;;32.75;15.45;;;1.10;99.90;;;;;;5070944;28;20164;-65
2022/12/09 07:36:58;;;;;;;30.05;15.00;;;1.10;99.90;;;;;;5052440;28;20118;-66
2022/12/09 07:39:24;;;;;;;30.60;14.98;;;1.10;99.90;;;;;;5072213;28;20111;-66
2022/12/09 07:41:55;;;;;;;36.00;17.40;;;1.20;99.90;;;;;;5054689;28;20454;-66
2022/12/09 07:44:21;;;;;;;30.80;14.88;;;1.10;99.90;;;;;;5071234;28;20040;-65
2022/12/09 07:46:46;;;;;;;35.42;14.55;;;1.10;99.90;;;;;;5067130;28;20498;-66
2022/12/09 07:49:12;;;;;;;30.13;15.38;;;1.10;99.90;;;;;;5065843;28;20394;-66
2022/12/09 07:51:38;;;;;;;51.20;15.15;;;1.10;99.90;;;;;;5069510;28;20040;-66
2022/12/09 07:54:03;;;;;;;30.48;13.75;;;1.10;99.90;;;;;;5064252;28;20415;-66
2022/12/09 07:56:29;;;;;;;29.05;13.93;;;1.10;99.90;;;;;;5071003;28;20060;-66
2022/12/09 07:58:55;;;;;;;26.83;14.50;;;1.00;99.90;;;;;;5071519;28;20090;-66
2022/12/09 08:01:27;;;;;;;27.17;13.40;;;1.00;99.90;;;;;;5070563;28;20041;-66
2022/12/09 08:03:53;;;;;;;26.27;13.88;;;1.00;99.90;;;;;;5068279;28;20040;-66
2022/12/09 08:06:21;;;;;;;29.13;14.10;;;1.00;99.90;;;;;;5058887;28;20068;-66
2022/12/09 08:08:47;;;;;;;29.23;15.07;;;1.10;99.90;;;;;;5068407;28;20437;-66
2022/12/09 08:11:15;;;;;;;32.03;14.90;;;1.10;99.90;;;;;;5066584;28;20790;-66
2022/12/09 08:13:41;;;;;;;29.20;15.07;;;1.00;99.90;;;;;;5070496;28;20522;-66
2022/12/09 08:16:10;;;;;;;30.02;14.98;;;1.00;99.90;;;;;;5053419;28;20481;-66
2022/12/09 08:18:36;;;;;;;33.15;15.80;;;1.00;99.90;;;;;;5054081;28;20462;-66
2022/12/09 08:21:07;;;;;;;31.58;15.98;;;1.00;99.90;;;;;;5067911;28;20076;-66
2022/12/09 08:23:33;;;;;;;33.95;15.75;;;1.10;99.90;;;;;;5043225;28;20036;-66
2022/12/09 08:25:59;;;;;;;34.05;16.40;;;1.00;99.90;;;;;;5048881;28;20040;-66
2022/12/09 08:28:26;;;;;;;32.75;16.00;;;1.10;99.90;;;;;;5069895;28;20029;-66
2022/12/09 08:30:51;;;;;;;34.50;16.33;;;1.10;99.90;;;;;;5067212;28;20032;-66
2022/12/09 08:33:17;;;;;;;36.10;16.42;;;1.10;99.90;;;;;;5061231;28;20180;-66
2022/12/09 08:35:43;;;;;;;32.40;15.70;;;1.10;99.90;;;;;;5068523;28;20486;-66
2022/12/09 08:38:09;;;;;;;32.38;15.57;;;1.20;99.90;;;;;;5053856;28;20535;-66
2022/12/09 08:40:35;;;;;;;34.75;17.10;;;1.20;99.90;;;;;;5070375;28;20111;-66
2022/12/09 08:43:04;;;;;;;34.45;16.52;;;1.20;99.90;;;;;;5068976;28;20159;-66
2022/12/09 08:45:34;;;;;;;37.60;16.83;;;1.20;99.90;;;;;;5068921;28;20037;-66
2022/12/09 08:48:00;;;;;;;50.43;21.03;;;1.20;99.90;;;;;;5069598;28;20051;-66
2022/12/09 08:50:25;;;;;;;57.60;21.50;;;1.20;99.90;;;;;;5065202;28;20294;-66
2022/12/09 08:52:51;;;;;;;77.05;23.23;;;1.30;99.90;;;;;;5064075;28;20297;-67
2022/12/09 08:55:16;;;;;;;114.05;27.17;;;1.30;99.90;;;;;;5070740;28;20116;-66
2022/12/09 08:57:42;;;;;;;125.07;29.38;;;1.30;99.90;;;;;;5073750;28;20048;-66
2022/12/09 09:00:09;;;;;;;133.38;27.33;;;1.30;99.90;;;;;;5071513;28;20161;-66
2022/12/09 09:02:34;;;;;;;108.57;26.58;;;1.40;99.90;;;;;;5052932;28;20041;-66
2022/12/09 09:05:00;;;;;;;141.30;27.58;;;1.40;99.90;;;;;;5070221;28;20036;-66
2022/12/09 09:07:25;;;;;;;181.95;29.95;;;1.40;99.90;;;;;;5073754;28;20659;-67
2022/12/09 09:09:51;;;;;;;204.20;33.03;;;1.40;99.90;;;;;;5074962;28;20498;-67
2022/12/09 09:12:17;;;;;;;221.68;32.85;;;1.40;99.90;;;;;;5071583;28;20033;-66
2022/12/09 09:14:42;;;;;;;187.50;28.73;;;1.40;99.90;;;;;;5070864;28;20033;-66
2022/12/09 09:17:08;;;;;;;168.82;28.33;;;1.40;99.90;;;;;;5073675;28;20028;-66
2022/12/09 09:19:33;;;;;;;175.93;29.20;;;1.40;99.90;;;;;;5074976;28;20401;-67
2022/12/09 09:21:59;;;;;;;223.13;33.75;;;1.50;99.90;;;;;;5075045;28;20124;-67
2022/12/09 09:24:25;;;;;;;313.27;37.85;;;1.50;99.90;;;;;;5073972;28;20375;-66
2022/12/09 09:26:52;;;;;;;173.32;28.20;;;1.40;99.90;;;;;;5074546;28;20432;-66
2022/12/09 09:29:20;;;;;;;139.25;28.42;;;1.40;99.90;;;;;;5073599;28;20512;-66
2022/12/09 09:31:47;;;;;;;136.20;28.20;;;1.40;99.90;;;;;;5071502;28;20047;-66
2022/12/09 09:34:15;;;;;;;153.75;29.02;;;1.50;99.90;;;;;;5074020;28;20082;-67
2022/12/09 09:36:41;;;;;;;153.43;27.10;;;1.50;99.90;;;;;;5073980;28;20120;-66
2022/12/09 09:39:07;;;;;;;205.05;32.53;;;1.50;99.90;;;;;;5073552;28;20123;-66
2022/12/09 09:41:51;;;;;;;192.60;30.67;;;1.50;99.90;;;;;;5073402;28;20043;-67
2022/12/09 09:44:46;;;;;;;232.73;32.28;;;1.50;99.90;;;;;;5066267;28;20052;-67
2022/12/09 09:47:30;;;;;;;178.65;30.23;;;1.50;99.90;;;;;;5066364;28;20123;-67
2022/12/09 09:50:18;;;;;;;206.57;33.88;;;1.60;99.90;;;;;;5074494;28;20048;-66
2022/12/09 09:52:43;;;;;;;132.32;27.42;;;1.60;99.90;;;;;;5073035;28;20040;-66
2022/12/09 09:55:14;;;;;;;124.95;27.42;;;1.60;99.90;;;;;;5072780;28;20389;-66
2022/12/09 09:57:52;;;;;;;175.27;32.15;;;1.70;99.90;;;;;;5055554;28;20112;-66
2022/12/09 10:00:22;;;;;;;247.18;38.08;;;1.60;99.90;;;;;;5072907;28;20029;-66
2022/12/09 10:03:08;;;;;;;104.38;28.63;;;1.60;99.90;;;;;;5072913;28;20048;-66
2022/12/09 10:05:51;;;;;;;131.20;30.40;;;1.60;99.90;;;;;;5072345;28;20168;-66
2022/12/09 10:08:22;;;;;;;241.23;36.70;;;1.60;99.90;;;;;;5066916;28;20087;-67
2022/12/09 10:10:56;;;;;;;;;;;1.60;99.90;;;;;;5062336;28;20071;-66
2022/12/09 10:14:01;;;;;;;110.70;27.58;;;1.70;99.90;;;;;;5067136;28;19920;-67
2022/12/09 10:16:38;;;;;;;132.70;31.60;;;1.70;99.90;;;;;;5069033;28;20371;-66
2022/12/09 10:19:30;;;;;;;131.82;32.70;;;1.70;99.90;;;;;;5035618;28;20056;-66
2022/12/09 10:21:58;;;;;;;100.57;32.97;;;1.60;99.90;;;;;;5054836;28;20090;-66
2022/12/09 10:24:32;;;;;;;228.85;42.67;;;1.70;99.90;;;;;;5072486;28;20074;-66
2022/12/09 10:27:19;;;;;;;119.35;35.85;;;1.70;99.90;;;;;;5062674;28;20533;-66
2022/12/09 10:30:01;;;;;;;127.72;32.88;;;1.70;99.90;;;;;;5038956;28;20082;-66
2022/12/09 10:32:32;;;;;;;116.45;33.17;;;1.70;99.90;;;;;;5073718;28;20040;-66
2022/12/09 10:34:58;;;;;;;126.30;34.95;;;1.70;99.90;;;;;;5071585;28;20028;-67
2022/12/09 10:37:30;;;;;;;164.82;38.63;;;1.70;99.90;;;;;;5072353;28;20032;-66
2022/12/09 10:40:31;;;;;;;146.23;35.67;;;1.70;99.90;;;;;;5073120;28;20040;-66
2022/12/09 10:45:52;;;;;;;106.57;30.38;;;1.80;99.90;;;;;;5072199;28;20053;-66
2022/12/09 10:48:32;;;;;;;152.90;33.60;;;1.80;99.90;;;;;;5073128;28;20387;-66
2022/12/09 10:51:03;;;;;;;137.77;33.78;;;1.80;99.90;;;;;;5065914;28;20406;-66
2022/12/09 10:53:30;;;;;;;112.18;32.97;;;1.90;99.90;;;;;;5073588;28;20050;-66
2022/12/09 10:55:58;;;;;;;96.93;31.27;;;1.90;99.90;;;;;;5072235;28;20047;-67
2022/12/09 10:58:27;;;;;;;115.65;34.40;;;1.90;99.90;;;;;;5073189;28;20430;-66
2022/12/09 11:01:14;;;;;;;83.47;32.83;;;1.90;99.90;;;;;;5073002;28;20052;-66
2022/12/09 11:03:50;;;;;;;84.35;33.03;;;1.90;99.90;;;;;;5065386;28;20039;-66
2022/12/09 11:06:21;;;;;;;81.65;30.98;;;2.00;99.90;;;;;;5056316;28;20401;-67
2022/12/09 11:09:01;;;;;;;84.97;31.33;;;2.00;99.90;;;;;;5072316;28;20029;-67
2022/12/09 11:11:47;;;;;;;85.78;30.17;;;2.00;99.90;;;;;;5055138;28;20123;-67
2022/12/09 11:14:23;;;;;;;98.85;29.27;;;2.00;99.90;;;;;;5053298;28;20086;-67
2022/12/09 11:16:54;;;;;;;71.60;27.70;;;2.00;99.90;;;;;;5061551;28;20037;-66
2022/12/09 11:19:38;;;;;;;69.15;26.77;;;2.00;99.90;;;;;;5066518;28;20048;-66
2022/12/09 11:22:38;;;;;;;63.63;24.92;;;2.00;99.90;;;;;;5072621;28;20516;-66
2022/12/09 11:25:23;;;;;;;83.93;28.25;;;2.00;99.90;;;;;;5071746;28;20044;-67
2022/12/09 11:28:00;;;;;;;67.75;26.98;;;2.00;99.90;;;;;;5072355;28;20044;-66
2022/12/09 11:30:38;;;;;;;67.20;27.70;;;2.00;99.90;;;;;;5072824;28;20445;-67
2022/12/09 11:33:30;;;;;;;67.20;29.77;;;2.00;99.90;;;;;;5063438;28;20111;-67
2022/12/09 11:36:21;;;;;;;71.60;26.65;;;2.10;99.90;;;;;;5071202;28;20051;-66
2022/12/09 11:38:50;;;;;;;65.88;27.45;;;2.10;99.90;;;;;;5072580;28;20072;-67
2022/12/09 11:44:33;;;;;;;64.95;28.20;;;2.20;99.90;;;;;;5070255;28;20047;-67
2022/12/09 11:47:00;;;;;;;65.80;27.80;;;2.20;99.90;;;;;;5067627;28;20048;-66
2022/12/09 11:49:28;;;;;;;63.50;27.45;;;2.20;99.90;;;;;;5071413;28;20051;-67
2022/12/09 11:52:25;;;;;;;67.30;28.85;;;2.20;99.90;;;;;;5071030;28;20036;-67
2022/12/09 11:54:59;;;;;;;67.82;28.15;;;2.30;99.90;;;;;;5066695;28;20048;-67
2022/12/09 11:57:24;;;;;;;68.85;29.17;;;2.40;99.90;;;;;;5072038;28;20662;-66
2022/12/09 11:59:56;;;;;;;66.55;27.48;;;2.40;99.90;;;;;;5068199;28;20048;-66
2022/12/09 12:02:37;;;;;;;69.00;28.00;;;2.40;99.90;;;;;;5068322;28;20051;-67
2022/12/09 12:05:20;;;;;;;71.90;27.90;;;2.40;99.90;;;;;;5070104;28;20044;-66
2022/12/09 12:08:31;;;;;;;63.20;27.13;;;2.50;99.90;;;;;;5069189;28;20044;-67
2022/12/09 12:11:03;;;;;;;63.45;26.15;;;2.50;99.90;;;;;;5070867;28;20047;-67
2022/12/09 12:14:03;;;;;;;55.53;25.17;;;2.60;99.90;;;;;;5052181;28;20410;-66
2022/12/09 12:16:47;;;;;;;60.08;25.90;;;2.60;99.90;;;;;;5068585;28;20548;-67
2022/12/09 12:19:30;;;;;;;60.92;25.15;;;2.60;99.90;;;;;;5070229;28;20410;-66
2022/12/09 12:22:35;;;;;;;56.63;25.80;;;2.70;99.90;;;;;;5071456;28;20059;-66
2022/12/09 12:25:25;;;;;;;57.10;25.58;;;2.70;99.90;;;;;;5065931;28;20032;-67
2022/12/09 12:28:09;;;;;;;56.78;23.42;;;2.80;99.90;;;;;;5066738;28;20132;-66
2022/12/09 12:30:44;;;;;;;57.35;25.08;;;2.80;99.90;;;;;;5070347;28;20559;-66
2022/12/09 12:33:38;;;;;;;51.97;23.40;;;2.80;99.90;;;;;;5069213;28;20070;-67
2022/12/09 12:36:25;;;;;;;51.10;22.08;;;2.80;99.90;;;;;;5062581;28;20040;-66
2022/12/09 12:39:12;;;;;;;51.08;22.23;;;2.80;99.90;;;;;;5071192;28;20036;-67
2022/12/09 12:41:54;;;;;;;52.88;23.48;;;2.80;99.90;;;;;;5065964;28;20043;-67
2022/12/09 12:47:50;;;;;;;45.67;20.75;;;2.80;99.90;;;;;;5093965;22;20127;-72
2022/12/09 12:50:27;;;;;;;48.75;22.33;;;2.80;99.90;;;;;;5089172;28;20036;-72
2022/12/09 12:53:23;;;;;;;48.88;22.25;;;2.80;99.90;;;;;;5089664;28;20040;-72
2022/12/09 12:55:59;;;;;;;47.22;20.58;;;2.90;99.90;;;;;;5087985;28;20758;-71
2022/12/09 12:59:02;;;;;;;44.60;19.10;;;2.90;99.90;;;;;;5091272;28;20493;-72
2022/12/09 13:01:35;;;;;;;42.28;18.05;;;2.90;99.90;;;;;;5085781;28;20126;-72
2022/12/09 13:04:21;;;;;;;37.83;17.83;;;2.80;99.90;;;;;;5088933;28;20636;-72
2022/12/09 13:07:06;;;;;;;37.33;17.10;;;2.90;99.90;;;;;;5088903;28;20505;-71